createdAt,value
2023-04-27T00:00:49.386Z,11.40
2023-04-27T00:03:16.550Z,11.20
2023-04-27T00:05:44.217Z,10.80
2023-04-27T00:08:11.016Z,10.80
2023-04-27T00:10:37.701Z,10.90
2023-04-27T00:13:04.399Z,11.00
2023-04-27T00:15:31.031Z,11.10
2023-04-27T00:17:57.767Z,11.10
2023-04-27T00:20:25.132Z,11.10
2023-04-27T00:22:51.864Z,11.10
2023-04-27T00:25:18.591Z,11.10
2023-04-27T00:27:45.225Z,10.90
2023-04-27T00:30:12.079Z,10.80
2023-04-27T00:32:38.840Z,10.70
2023-04-27T00:35:06.143Z,10.60
2023-04-27T00:37:32.793Z,10.60
2023-04-27T00:39:59.436Z,10.70
2023-04-27T00:42:26.285Z,10.70
2023-04-27T00:44:52.952Z,10.80
2023-04-27T00:47:19.689Z,10.70
2023-04-27T00:49:46.472Z,10.60
2023-04-27T00:52:13.220Z,10.50
2023-04-27T00:54:42.311Z,10.40
2023-04-27T00:57:09.128Z,10.20
2023-04-27T00:59:35.898Z,10.00
2023-04-27T01:02:02.907Z,9.80
2023-04-27T01:04:32.304Z,9.90
2023-04-27T01:06:59.249Z,10.00
2023-04-27T01:09:26.196Z,10.10
2023-04-27T01:11:52.825Z,9.90
2023-04-27T01:14:19.873Z,9.90
2023-04-27T01:16:46.640Z,9.90
2023-04-27T01:19:13.638Z,9.90
2023-04-27T01:21:40.852Z,9.90
2023-04-27T01:24:08.276Z,9.90
2023-04-27T01:26:34.937Z,10.10
2023-04-27T01:29:01.768Z,10.10
2023-04-27T01:31:28.541Z,10.10
2023-04-27T01:33:55.487Z,10.10
2023-04-27T01:36:22.286Z,10.20
2023-04-27T01:38:48.948Z,10.20
2023-04-27T01:41:18.451Z,10.20
2023-04-27T01:43:45.194Z,10.20
2023-04-27T01:46:13.542Z,10.10
2023-04-27T01:48:40.895Z,10.10
2023-04-27T01:51:07.760Z,10.10
2023-04-27T01:53:34.535Z,10.20
2023-04-27T01:56:01.438Z,10.10
2023-04-27T01:58:28.210Z,10.00
2023-04-27T02:00:57.854Z,9.90
2023-04-27T02:03:24.653Z,9.80
2023-04-27T02:05:51.634Z,9.90
2023-04-27T02:08:18.311Z,9.90
2023-04-27T02:10:44.994Z,10.00
2023-04-27T02:13:11.707Z,9.90
2023-04-27T02:15:40.741Z,9.80
2023-04-27T02:18:07.570Z,9.70
2023-04-27T02:20:34.384Z,9.80
2023-04-27T02:23:02.943Z,9.90
2023-04-27T02:25:29.666Z,9.90
2023-04-27T02:27:56.536Z,9.90
2023-04-27T02:30:23.746Z,9.90
2023-04-27T02:32:51.083Z,9.80
2023-04-27T02:35:17.828Z,9.80
2023-04-27T02:37:44.520Z,9.70
2023-04-27T02:40:11.555Z,9.80
2023-04-27T02:42:38.927Z,9.70
2023-04-27T02:45:09.688Z,9.60
2023-04-27T02:47:36.440Z,9.70
2023-04-27T02:50:04.037Z,9.80
2023-04-27T02:52:30.714Z,9.70
2023-04-27T02:54:57.461Z,9.70
2023-04-27T02:57:24.177Z,9.70
2023-04-27T02:59:50.939Z,9.60
2023-04-27T03:02:17.726Z,9.60
2023-04-27T03:04:44.630Z,9.50
2023-04-27T03:07:12.808Z,9.50
2023-04-27T03:09:39.481Z,9.50
2023-04-27T03:12:06.239Z,9.50
2023-04-27T03:14:32.998Z,9.40
2023-04-27T03:17:00.573Z,9.40
2023-04-27T03:19:27.378Z,9.50
2023-04-27T03:21:53.993Z,9.40
2023-04-27T03:24:21.721Z,9.30
2023-04-27T03:26:48.409Z,9.40
2023-04-27T03:29:15.121Z,9.30
2023-04-27T03:31:42.079Z,9.40
2023-04-27T03:34:08.773Z,9.40
2023-04-27T03:36:35.720Z,9.40
2023-04-27T03:39:04.752Z,9.40
2023-04-27T03:41:31.423Z,9.40
2023-04-27T03:43:58.036Z,9.40
2023-04-27T03:46:24.737Z,9.30
2023-04-27T03:48:51.673Z,9.30
2023-04-27T03:51:18.353Z,9.20
2023-04-27T03:53:48.027Z,9.10
2023-04-27T03:56:14.813Z,9.10
2023-04-27T03:58:41.517Z,9.20
2023-04-27T04:01:10.132Z,9.20
2023-04-27T04:03:37.621Z,9.20
2023-04-27T04:06:04.586Z,9.30
2023-04-27T04:08:32.907Z,9.20
2023-04-27T04:11:00.078Z,9.20
2023-04-27T04:13:27.035Z,9.10
2023-04-27T04:16:07.778Z,9.10
2023-04-27T04:18:35.726Z,9.10
2023-04-27T04:21:02.927Z,9.00
2023-04-27T04:23:29.716Z,9.00
2023-04-27T04:25:57.586Z,9.00
2023-04-27T04:28:25.088Z,9.00
2023-04-27T04:30:52.375Z,9.00
2023-04-27T04:33:19.393Z,8.90
2023-04-27T04:35:46.917Z,8.90
2023-04-27T04:38:13.615Z,9.00
2023-04-27T04:40:43.761Z,9.00
2023-04-27T04:43:12.269Z,9.00
2023-04-27T04:45:38.922Z,8.90
2023-04-27T04:48:06.083Z,9.00
2023-04-27T04:50:32.794Z,9.00
2023-04-27T04:52:59.501Z,8.80
2023-04-27T04:55:28.330Z,8.90
2023-04-27T04:57:55.088Z,8.90
2023-04-27T05:00:22.452Z,8.80
2023-04-27T05:02:49.536Z,8.80
2023-04-27T05:05:16.691Z,8.80
2023-04-27T05:07:43.450Z,8.80
2023-04-27T05:10:10.311Z,8.80
2023-04-27T05:12:37.078Z,8.80
2023-04-27T05:15:04.802Z,8.70
2023-04-27T05:17:31.721Z,8.80
2023-04-27T05:19:58.440Z,8.90
2023-04-27T05:22:28.175Z,8.90
2023-04-27T05:24:55.432Z,8.90
2023-04-27T05:27:22.173Z,8.80
2023-04-27T05:29:48.836Z,8.90
2023-04-27T05:32:15.693Z,8.80
2023-04-27T05:34:45.666Z,9.00
2023-04-27T05:37:14.066Z,9.00
2023-04-27T05:39:40.797Z,8.90
2023-04-27T05:42:07.484Z,8.90
2023-04-27T05:44:34.368Z,8.90
2023-04-27T05:47:01.208Z,8.90
2023-04-27T05:49:27.830Z,8.80
2023-04-27T05:51:54.485Z,8.90
2023-04-27T05:54:21.091Z,9.00
2023-04-27T05:56:47.786Z,8.90
2023-04-27T05:59:14.663Z,9.00
2023-04-27T06:01:41.485Z,9.00
2023-04-27T06:04:08.425Z,9.20
2023-04-27T06:06:35.356Z,9.10
2023-04-27T06:09:02.172Z,9.10
2023-04-27T06:11:28.841Z,9.20
2023-04-27T06:13:55.542Z,9.20
2023-04-27T06:16:23.558Z,9.40
2023-04-27T06:18:51.225Z,9.50
2023-04-27T06:21:18.038Z,9.50
2023-04-27T06:23:44.874Z,9.50
2023-04-27T06:26:11.683Z,9.50
2023-04-27T06:28:38.412Z,9.70
2023-04-27T06:31:06.131Z,9.70
2023-04-27T06:33:33.287Z,9.80
2023-04-27T06:36:01.286Z,9.90
2023-04-27T06:38:28.172Z,9.90
2023-04-27T06:40:55.045Z,9.80
2023-04-27T06:43:22.206Z,9.90
2023-04-27T06:45:49.006Z,10.00
2023-04-27T06:48:16.955Z,10.10
2023-04-27T06:50:44.187Z,10.30
2023-04-27T06:53:11.211Z,10.20
2023-04-27T06:55:38.032Z,10.20
2023-04-27T06:58:04.793Z,10.40
2023-04-27T07:00:32.108Z,10.50
2023-04-27T07:02:59.064Z,10.80
2023-04-27T07:05:26.063Z,11.00
2023-04-27T07:07:52.727Z,11.00
2023-04-27T07:10:19.682Z,11.10
2023-04-27T07:12:49.757Z,11.00
2023-04-27T07:15:16.623Z,11.20
2023-04-27T07:17:43.369Z,11.30
2023-04-27T07:20:10.294Z,11.60
2023-04-27T07:22:36.955Z,11.60
2023-04-27T07:25:05.335Z,11.80
2023-04-27T07:27:32.900Z,12.10
2023-04-27T07:29:59.613Z,12.10
2023-04-27T07:32:28.772Z,12.30
2023-04-27T07:34:56.086Z,12.40
2023-04-27T07:37:23.236Z,12.60
2023-04-27T07:39:54.396Z,12.90
2023-04-27T07:42:25.080Z,13.00
2023-04-27T07:44:52.526Z,13.00
2023-04-27T07:47:19.619Z,13.10
2023-04-27T07:49:47.087Z,13.50
2023-04-27T07:52:14.357Z,13.80
2023-04-27T07:54:41.104Z,14.00
2023-04-27T07:57:11.845Z,14.20
2023-04-27T07:59:39.054Z,14.00
2023-04-27T08:02:18.429Z,14.30
2023-04-27T08:04:47.306Z,14.40
2023-04-27T08:07:16.030Z,14.30
2023-04-27T08:09:43.119Z,14.60
2023-04-27T08:12:09.848Z,14.50
2023-04-27T08:14:36.762Z,14.60
2023-04-27T08:17:03.650Z,14.60
2023-04-27T08:19:30.431Z,14.80
2023-04-27T08:21:57.068Z,15.00
2023-04-27T08:24:23.886Z,15.20
2023-04-27T08:26:50.582Z,15.20
2023-04-27T08:29:27.094Z,15.20
2023-04-27T08:32:01.993Z,15.00
2023-04-27T08:34:29.123Z,15.10
2023-04-27T08:36:56.787Z,15.10
2023-04-27T08:39:24.450Z,15.20
2023-04-27T08:41:51.604Z,15.60
2023-04-27T08:44:18.877Z,15.90
2023-04-27T08:46:45.864Z,16.20
2023-04-27T08:49:15.135Z,16.10
2023-04-27T08:51:43.787Z,16.10
2023-04-27T08:54:10.628Z,16.30
2023-04-27T08:56:53.288Z,16.50
2023-04-27T08:59:20.017Z,16.50
2023-04-27T09:01:48.770Z,16.60
2023-04-27T09:04:17.781Z,16.50
2023-04-27T09:06:45.000Z,17.00
2023-04-27T09:09:22.287Z,16.70
2023-04-27T09:11:49.937Z,16.70
2023-04-27T09:14:17.827Z,16.80
2023-04-27T09:16:44.840Z,16.80
2023-04-27T09:19:12.109Z,16.90
2023-04-27T09:21:38.919Z,17.20
2023-04-27T09:24:13.116Z,17.20
2023-04-27T09:26:42.784Z,17.30
2023-04-27T09:29:09.853Z,16.70
2023-04-27T09:31:36.652Z,16.70
2023-04-27T09:34:04.448Z,16.90
2023-04-27T09:36:32.589Z,16.90
2023-04-27T09:39:02.489Z,17.20
2023-04-27T09:41:29.510Z,16.90
2023-04-27T09:43:58.139Z,17.10
2023-04-27T09:46:26.281Z,17.50
2023-04-27T09:48:54.436Z,17.70
2023-04-27T09:51:21.182Z,17.90
2023-04-27T09:53:53.989Z,17.90
2023-04-27T09:56:29.614Z,18.00
2023-04-27T09:59:26.877Z,18.10
2023-04-27T10:02:02.878Z,17.90
2023-04-27T10:04:56.334Z,18.10
2023-04-27T10:07:23.228Z,18.00
2023-04-27T10:09:53.665Z,18.30
2023-04-27T10:12:27.076Z,18.50
2023-04-27T10:14:54.617Z,18.40
2023-04-27T10:17:28.830Z,18.20
2023-04-27T10:20:03.758Z,18.50
2023-04-27T10:22:48.006Z,18.70
2023-04-27T10:25:22.013Z,18.40
2023-04-27T10:27:53.888Z,18.40
2023-04-27T10:30:22.180Z,18.20
2023-04-27T10:32:53.137Z,18.60
2023-04-27T10:35:21.605Z,18.40
2023-04-27T10:37:48.923Z,18.50
2023-04-27T10:40:19.190Z,18.00
2023-04-27T10:42:48.188Z,17.70
2023-04-27T10:45:25.732Z,18.00
2023-04-27T10:47:59.974Z,18.60
2023-04-27T10:50:27.545Z,18.50
2023-04-27T10:52:54.290Z,18.70
2023-04-27T10:55:23.132Z,18.80
2023-04-27T10:57:56.996Z,18.90
2023-04-27T11:00:35.435Z,18.90
2023-04-27T11:03:14.494Z,19.00
2023-04-27T11:05:42.844Z,19.10
2023-04-27T11:08:15.422Z,18.70
2023-04-27T11:10:49.088Z,18.60
2023-04-27T11:13:21.384Z,18.50
2023-04-27T11:15:54.786Z,18.80
2023-04-27T11:18:24.182Z,19.00
2023-04-27T11:20:53.664Z,18.80
2023-04-27T11:23:29.178Z,19.10
2023-04-27T11:25:56.956Z,18.20
2023-04-27T11:28:24.381Z,18.30
2023-04-27T11:30:58.623Z,18.40
2023-04-27T11:33:26.926Z,18.60
2023-04-27T11:35:54.055Z,18.80
2023-04-27T11:38:21.961Z,19.00
2023-04-27T11:41:01.210Z,19.10
2023-04-27T11:43:28.561Z,19.00
2023-04-27T11:45:56.297Z,19.00
2023-04-27T11:48:24.088Z,19.10
2023-04-27T11:50:53.306Z,18.80
2023-04-27T11:53:31.992Z,18.60
2023-04-27T11:56:05.259Z,18.30
2023-04-27T11:58:36.669Z,18.30
2023-04-27T12:01:04.794Z,17.70
2023-04-27T12:03:32.088Z,18.10
2023-04-27T12:06:11.654Z,17.90
2023-04-27T12:08:46.053Z,18.00
2023-04-27T12:11:12.724Z,18.40
2023-04-27T12:13:39.582Z,18.70
2023-04-27T12:16:06.888Z,19.00
2023-04-27T12:18:33.677Z,19.10
2023-04-27T12:21:03.117Z,19.20
2023-04-27T12:23:30.139Z,18.90
2023-04-27T12:25:56.796Z,19.10
2023-04-27T12:28:23.499Z,19.00
2023-04-27T12:30:53.735Z,19.00
2023-04-27T12:33:20.806Z,19.20
2023-04-27T12:35:47.559Z,18.90
2023-04-27T12:38:14.214Z,19.10
2023-04-27T12:40:40.845Z,19.40
2023-04-27T12:43:09.333Z,19.30
2023-04-27T12:45:36.001Z,19.50
2023-04-27T12:48:04.422Z,19.50
2023-04-27T12:50:32.481Z,19.70
2023-04-27T12:53:01.959Z,19.70
2023-04-27T12:55:32.910Z,19.70
2023-04-27T12:58:01.412Z,19.50
2023-04-27T13:00:29.529Z,19.40
2023-04-27T13:02:56.591Z,19.20
2023-04-27T13:05:23.802Z,19.30
2023-04-27T13:07:53.442Z,19.80
2023-04-27T13:10:20.106Z,19.90
2023-04-27T13:12:46.838Z,19.70
2023-04-27T13:15:13.553Z,19.50
2023-04-27T13:17:41.708Z,19.40
2023-04-27T13:20:10.779Z,19.50
2023-04-27T13:22:37.761Z,19.70
2023-04-27T13:25:06.014Z,19.90
2023-04-27T13:27:32.757Z,19.70
2023-04-27T13:30:02.312Z,19.90
2023-04-27T13:32:30.161Z,20.10
2023-04-27T13:35:00.640Z,20.20
2023-04-27T13:37:30.382Z,20.20
2023-04-27T13:39:57.055Z,19.90
2023-04-27T13:42:29.282Z,19.80
2023-04-27T13:44:57.037Z,19.50
2023-04-27T13:47:23.834Z,19.40
2023-04-27T13:49:53.056Z,19.70
2023-04-27T13:52:19.828Z,19.80
2023-04-27T13:54:46.487Z,20.10
2023-04-27T13:57:13.186Z,20.00
2023-04-27T13:59:39.815Z,19.90
2023-04-27T14:02:06.510Z,20.00
2023-04-27T14:04:33.417Z,19.70
2023-04-27T14:07:00.248Z,19.90
2023-04-27T14:09:27.313Z,19.70
2023-04-27T14:11:57.221Z,19.30
2023-04-27T14:14:24.231Z,19.80
2023-04-27T14:16:51.417Z,19.80
2023-04-27T14:19:20.280Z,19.00
2023-04-27T14:21:49.118Z,19.60
2023-04-27T14:24:15.864Z,20.10
2023-04-27T14:26:47.380Z,20.30
2023-04-27T14:29:14.756Z,20.00
2023-04-27T14:31:41.905Z,20.00
2023-04-27T14:34:08.762Z,20.10
2023-04-27T14:36:35.810Z,20.00
2023-04-27T14:39:04.329Z,20.20
2023-04-27T14:41:31.079Z,20.20
2023-04-27T14:43:57.767Z,20.30
2023-04-27T14:46:24.440Z,20.20
2023-04-27T14:48:51.392Z,20.40
2023-04-27T14:51:18.276Z,20.10
2023-04-27T14:53:45.041Z,20.00
2023-04-27T14:56:12.250Z,20.20
2023-04-27T14:58:39.154Z,20.40
2023-04-27T15:01:06.991Z,20.50
2023-04-27T15:03:34.043Z,20.40
2023-04-27T15:06:01.955Z,20.00
2023-04-27T15:08:30.741Z,20.40
2023-04-27T15:10:59.923Z,20.50
2023-04-27T15:13:27.757Z,20.40
2023-04-27T15:15:58.784Z,20.60
2023-04-27T15:18:25.929Z,20.60
2023-04-27T15:20:55.903Z,20.60
2023-04-27T15:23:23.565Z,20.40
2023-04-27T15:25:51.699Z,20.40
2023-04-27T15:28:19.062Z,20.40
2023-04-27T15:30:46.177Z,20.30
2023-04-27T15:33:14.554Z,20.40
2023-04-27T15:35:41.545Z,20.40
2023-04-27T15:38:12.958Z,20.00
2023-04-27T15:40:40.127Z,19.90
2023-04-27T15:43:09.133Z,19.90
2023-04-27T15:45:35.887Z,19.80
2023-04-27T15:48:02.679Z,19.70
2023-04-27T15:50:32.429Z,19.80
2023-04-27T15:52:59.142Z,19.80
2023-04-27T15:55:25.828Z,19.90
2023-04-27T15:57:53.396Z,20.10
2023-04-27T16:00:22.232Z,20.10
2023-04-27T16:02:49.489Z,20.20
2023-04-27T16:05:16.914Z,20.20
2023-04-27T16:07:45.002Z,20.10
2023-04-27T16:10:12.583Z,19.70
2023-04-27T16:12:39.519Z,19.90
2023-04-27T16:15:09.388Z,20.00
2023-04-27T16:17:37.949Z,20.20
2023-04-27T16:20:08.330Z,20.10
2023-04-27T16:22:36.154Z,20.30
2023-04-27T16:25:03.966Z,20.10
2023-04-27T16:27:30.864Z,20.10
2023-04-27T16:29:57.674Z,20.00
2023-04-27T16:32:24.496Z,20.00
2023-04-27T16:34:52.791Z,20.10
2023-04-27T16:37:19.505Z,20.10
2023-04-27T16:39:46.511Z,20.00
2023-04-27T16:42:18.475Z,19.70
2023-04-27T16:44:45.370Z,19.40
2023-04-27T16:47:12.347Z,19.30
2023-04-27T16:49:39.038Z,19.10
2023-04-27T16:52:06.012Z,19.10
2023-04-27T16:54:32.759Z,19.30
2023-04-27T16:56:59.554Z,19.20
2023-04-27T16:59:26.621Z,19.40
2023-04-27T17:01:53.353Z,19.30
2023-04-27T17:04:20.304Z,19.20
2023-04-27T17:06:48.801Z,19.00
2023-04-27T17:09:15.774Z,19.20
2023-04-27T17:11:42.720Z,19.20
2023-04-27T17:14:09.480Z,19.20
2023-04-27T17:16:36.181Z,19.20
2023-04-27T17:19:03.751Z,19.20
2023-04-27T17:21:31.607Z,19.20
2023-04-27T17:23:58.300Z,19.10
2023-04-27T17:26:25.087Z,19.10
2023-04-27T17:28:51.835Z,19.20
2023-04-27T17:31:18.555Z,19.20
2023-04-27T17:33:45.848Z,19.20
2023-04-27T17:36:12.890Z,19.10
2023-04-27T17:38:39.629Z,19.00
2023-04-27T17:41:06.373Z,19.00
2023-04-27T17:43:33.132Z,18.80
2023-04-27T17:45:59.897Z,18.70
2023-04-27T17:48:26.834Z,18.70
2023-04-27T17:50:53.850Z,18.70
2023-04-27T17:53:20.512Z,18.80
2023-04-27T17:55:47.938Z,18.60
2023-04-27T17:58:15.560Z,18.50
2023-04-27T18:00:43.218Z,18.40
2023-04-27T18:03:10.900Z,18.50
2023-04-27T18:05:37.900Z,18.60
2023-04-27T18:08:04.727Z,18.60
2023-04-27T18:10:34.069Z,18.50
2023-04-27T18:13:00.843Z,18.50
2023-04-27T18:15:27.595Z,18.40
2023-04-27T18:17:55.014Z,18.30
2023-04-27T18:20:23.377Z,18.20
2023-04-27T18:22:50.235Z,18.20
2023-04-27T18:25:17.006Z,18.30
2023-04-27T18:27:45.193Z,17.90
2023-04-27T18:30:12.349Z,17.80
2023-04-27T18:32:39.232Z,17.80
2023-04-27T18:35:09.407Z,17.90
2023-04-27T18:37:36.329Z,18.00
2023-04-27T18:40:05.759Z,18.10
2023-04-27T18:42:32.555Z,18.00
2023-04-27T18:45:00.788Z,18.20
2023-04-27T18:47:27.895Z,18.30
2023-04-27T18:49:57.524Z,18.30
2023-04-27T18:52:24.361Z,18.30
2023-04-27T18:54:51.192Z,18.20
2023-04-27T18:57:18.050Z,18.00
2023-04-27T18:59:44.785Z,18.10
2023-04-27T19:02:13.626Z,18.10
2023-04-27T19:04:45.373Z,18.00
2023-04-27T19:07:19.752Z,18.00
2023-04-27T19:09:49.161Z,17.90
2023-04-27T19:12:15.977Z,17.80
2023-04-27T19:14:42.651Z,17.60
2023-04-27T19:17:11.620Z,17.70
2023-04-27T19:19:38.385Z,18.00
2023-04-27T19:22:05.406Z,18.10
2023-04-27T19:24:32.497Z,18.00
2023-04-27T19:26:59.318Z,18.10
2023-04-27T19:29:28.989Z,18.00
2023-04-27T19:31:56.131Z,18.00
2023-04-27T19:34:23.055Z,17.90
2023-04-27T19:36:50.110Z,17.90
2023-04-27T19:39:19.301Z,18.00
2023-04-27T19:41:46.166Z,17.90
2023-04-27T19:44:13.035Z,17.80
2023-04-27T19:46:40.048Z,17.60
2023-04-27T19:49:06.842Z,17.40
2023-04-27T19:51:33.684Z,17.30
2023-04-27T19:54:00.543Z,17.20
2023-04-27T19:56:27.293Z,17.20
2023-04-27T19:58:54.065Z,17.30
2023-04-27T20:01:21.924Z,17.10
2023-04-27T20:03:48.777Z,17.20
2023-04-27T20:06:15.799Z,17.20
2023-04-27T20:08:42.508Z,17.20
2023-04-27T20:11:09.339Z,17.30
2023-04-27T20:13:36.134Z,17.10
2023-04-27T20:16:03.047Z,17.10
2023-04-27T20:18:31.810Z,17.10
2023-04-27T20:21:01.762Z,16.90
2023-04-27T20:23:28.432Z,17.00
2023-04-27T20:25:55.168Z,17.00
2023-04-27T20:28:21.902Z,17.00
2023-04-27T20:30:51.029Z,17.00
2023-04-27T20:33:18.351Z,17.00
2023-04-27T20:35:46.722Z,16.90
2023-04-27T20:38:13.683Z,16.80
2023-04-27T20:40:43.084Z,16.60
2023-04-27T20:43:09.825Z,16.50
2023-04-27T20:45:36.610Z,16.50
2023-04-27T20:48:03.436Z,16.40
2023-04-27T20:50:30.890Z,16.30
2023-04-27T20:52:57.637Z,16.10
2023-04-27T20:55:24.406Z,16.00
2023-04-27T20:57:51.255Z,15.90
2023-04-27T21:00:20.582Z,15.90
2023-04-27T21:02:51.173Z,16.00
2023-04-27T21:05:17.987Z,15.90
2023-04-27T21:07:44.650Z,15.90
2023-04-27T21:10:12.673Z,15.80
2023-04-27T21:12:39.403Z,15.80
2023-04-27T21:15:06.575Z,15.90
2023-04-27T21:17:33.370Z,15.80
2023-04-27T21:19:59.995Z,15.60
2023-04-27T21:22:26.845Z,15.80
2023-04-27T21:24:53.532Z,15.70
2023-04-27T21:27:20.379Z,15.50
2023-04-27T21:29:47.019Z,15.50
2023-04-27T21:32:13.709Z,15.40
2023-04-27T21:34:40.683Z,15.30
2023-04-27T21:37:07.318Z,15.40
2023-04-27T21:39:34.042Z,15.40
2023-04-27T21:42:00.743Z,15.40
2023-04-27T21:44:27.407Z,15.30
2023-04-27T21:46:54.045Z,15.20
2023-04-27T21:49:20.948Z,15.10
2023-04-27T21:51:47.680Z,15.10
2023-04-27T21:54:14.592Z,15.00
2023-04-27T21:56:41.752Z,14.90
2023-04-27T21:59:08.483Z,14.80
2023-04-27T22:01:35.208Z,14.80
2023-04-27T22:04:04.103Z,14.80
2023-04-27T22:06:30.981Z,14.70
2023-04-27T22:08:57.803Z,14.50
2023-04-27T22:11:24.591Z,14.50
2023-04-27T22:13:51.291Z,14.50
2023-04-27T22:16:17.982Z,14.40
2023-04-27T22:18:44.676Z,14.40
2023-04-27T22:21:12.885Z,14.50
2023-04-27T22:23:40.131Z,14.40
2023-04-27T22:26:08.874Z,14.40
2023-04-27T22:28:35.834Z,14.40
2023-04-27T22:31:02.559Z,14.30
2023-04-27T22:33:29.269Z,14.30
2023-04-27T22:35:55.977Z,14.40
2023-04-27T22:38:22.609Z,14.30
2023-04-27T22:40:49.316Z,14.20
2023-04-27T22:43:16.067Z,14.20
2023-04-27T22:45:42.693Z,14.30
2023-04-27T22:48:09.447Z,14.30
2023-04-27T22:50:36.170Z,14.30
2023-04-27T22:53:06.213Z,14.20
2023-04-27T22:55:32.825Z,14.20
2023-04-27T22:57:59.498Z,14.30
2023-04-27T23:00:26.278Z,14.10
2023-04-27T23:02:53.111Z,14.10
2023-04-27T23:05:20.050Z,14.10
2023-04-27T23:07:46.805Z,14.10
2023-04-27T23:10:15.071Z,14.10
2023-04-27T23:12:41.884Z,14.20
2023-04-27T23:15:09.400Z,14.20
2023-04-27T23:17:36.333Z,14.20
2023-04-27T23:20:24.167Z,14.10
2023-04-27T23:22:53.763Z,14.10
2023-04-27T23:25:20.632Z,14.10
2023-04-27T23:27:48.097Z,14.10
2023-04-27T23:30:16.135Z,14.10
2023-04-27T23:32:43.096Z,14.00
2023-04-27T23:35:09.850Z,13.80
2023-04-27T23:37:36.505Z,13.40
2023-04-27T23:40:04.440Z,13.20
2023-04-27T23:42:31.074Z,13.30
2023-04-27T23:44:58.305Z,13.40
2023-04-27T23:47:24.956Z,13.40
2023-04-27T23:49:51.571Z,13.50
2023-04-27T23:52:18.246Z,13.50
2023-04-27T23:54:44.897Z,13.40
2023-04-27T23:57:11.579Z,13.30
2023-04-27T23:59:38.340Z,13.30
